Litchfield, IL

3:08 PM CDT on March 30, 2017 (GMT -0500)
Litchfield

Weather History for K3LF - December, 2013

Change the Weather History Date:

Sunday, December 8, 2013

  Actual Average (KALN) Record (KALN)
Temperature  
Mean Temperature 22 °F -  
Max Temperature 25 °F 43 °F 57 °F (1999)
Min Temperature 19 °F 29 °F 10 °F (2005)
Degree Days  
Heating Degree Days 43    
Moisture  
Dew Point 20 °F    
Average Humidity 88    
Maximum Humidity 100    
Minimum Humidity 62    
Precipitation  
Precipitation 0.00 in - - ()
Sea Level Pressure  
Sea Level Pressure 30.17 in    
Wind  
Wind Speed 8 mph (ESE)    
Max Wind Speed 14 mph    
Max Gust Speed 18 mph    
Visibility 6 miles    
Events Snow    
Averages and records for this station are not official NWS values.
T = Trace of Precipitation, MM = Missing Value Source: NWS Daily Summary

Daily Weather History Graph

Daily Weather History Graph

Search for Another Location

Airport or City:

Trip Planner

Search our weather history database for the weather conditions in past years. The results will help you decide how hot, cold, wet, or windy it might be!

Date:

Astronomy

Dec. 08, 2013 Rise Set
Actual Time 7:05 AM CST 4:35 PM CST
Civil Twilight 6:35 AM CST 5:05 PM CST
Nautical Twilight 6:02 AM CST 5:39 PM CST
Astronomical Twilight 5:29 AM CST 6:11 PM CST
Moon 11:28 AM CST (12/8) 11:22 PM CST (12/8)
Length of Visible Light 10h 29m
Length of Day
9h 30m
Waxing Crescent, 40% of the Moon is Illuminated
Dec 8
Waxing Crescent
Dec 9
First Quarter
Dec 17
Full
Dec 25
Last Quarter
Jan 1
New

Hourly Weather History & Observations

Time (CST) Temp. Windchill Dew Point Humidity Pressure Visibility Wind Dir Wind Speed Gust Speed Precip Events Conditions
12:15 AM 19.4 °F 10.4 °F 9.0 °F 64% 30.45 in 10.0 mi East 6.9 mph - N/A   Scattered Clouds
12:35 AM 19.8 °F 11.9 °F 9.0 °F 63% 30.44 in 10.0 mi ENE 5.8 mph - N/A   Scattered Clouds
12:55 AM 20.1 °F 11.3 °F 9.5 °F 63% 30.44 in 10.0 mi East 6.9 mph - N/A   Mostly Cloudy
1:15 AM 20.3 °F 10.6 °F 9.3 °F 63% 30.42 in 10.0 mi ENE 8.1 mph - N/A   Overcast
1:35 AM 20.7 °F 11.0 °F 9.3 °F 62% 30.43 in 10.0 mi ENE 8.1 mph - N/A   Overcast
1:55 AM 21.0 °F 11.4 °F 9.9 °F 62% 30.40 in 10.0 mi ENE 8.1 mph - N/A   Overcast
2:15 AM 20.8 °F 10.4 °F 10.9 °F 66% 30.40 in 4.0 mi East 9.2 mph - N/A Snow Light Snow
2:35 AM 20.1 °F 12.3 °F 13.5 °F 75% 30.40 in 3.0 mi ENE 5.8 mph - N/A Snow Light Snow
2:55 AM 19.8 °F 9.9 °F 14.9 °F 81% 30.39 in 1.8 mi ENE 8.1 mph - N/A Snow Light Snow
3:15 AM 19.0 °F 9.0 °F 16.2 °F 89% 30.37 in 1.5 mi ENE 8.1 mph - N/A Snow Light Snow
3:35 AM 19.0 °F 10.0 °F 16.3 °F 89% 30.37 in 3.0 mi ENE 6.9 mph - N/A Snow Light Snow
3:55 AM 19.2 °F 9.3 °F 16.3 °F 89% 30.36 in 10.0 mi NE 8.1 mph - N/A   Overcast
4:15 AM 19.4 °F 8.6 °F 16.5 °F 89% 30.35 in 10.0 mi NE 9.2 mph - N/A   Overcast
4:35 AM 19.8 °F 8.3 °F 16.7 °F 88% 30.33 in 10.0 mi ENE 10.4 mph - N/A   Overcast
4:55 AM 19.8 °F 9.1 °F 16.7 °F 88% 30.31 in 10.0 mi ENE 9.2 mph - N/A   Overcast
5:15 AM 19.8 °F 8.3 °F 16.7 °F 88% 30.29 in 7.0 mi ENE 10.4 mph - N/A Snow Light Snow
5:35 AM 19.9 °F 8.6 °F 16.7 °F 87% 30.28 in 7.0 mi ENE 10.4 mph - N/A Snow Light Snow
5:55 AM 20.1 °F 9.5 °F 17.1 °F 88% 30.28 in 10.0 mi ENE 9.2 mph - N/A   Scattered Clouds
6:15 AM 20.1 °F 10.3 °F 17.1 °F 88% 30.27 in 10.0 mi NE 8.1 mph - N/A   Scattered Clouds
6:35 AM 20.1 °F 8.8 °F 17.2 °F 89% 30.27 in 10.0 mi NE 10.4 mph - N/A   Mostly Cloudy
6:55 AM 20.3 °F 7.7 °F 17.4 °F 89% 30.26 in 10.0 mi NE 12.7 mph - N/A   Overcast
7:15 AM 20.5 °F 8.0 °F 17.8 °F 89% 30.24 in 10.0 mi ENE 12.7 mph 18.4 mph N/A   Overcast
7:35 AM 20.5 °F 7.4 °F 17.8 °F 89% 30.23 in 7.0 mi ENE 13.8 mph 18.4 mph N/A   Overcast
7:55 AM 21.0 °F 8.1 °F 18.1 °F 89% 30.23 in 10.0 mi East 13.8 mph - N/A   Overcast
8:15 AM 21.2 °F 8.9 °F 18.1 °F 88% 30.23 in 10.0 mi East 12.7 mph - N/A   Mostly Cloudy
8:35 AM 21.7 °F 12.3 °F 18.5 °F 87% 30.23 in 10.0 mi East 8.1 mph - N/A   Overcast
8:55 AM 22.3 °F 10.8 °F 18.9 °F 87% 30.23 in 10.0 mi East 11.5 mph - N/A   Overcast
9:15 AM 23.0 °F 13.9 °F 19.2 °F 85% 30.22 in 10.0 mi ESE 8.1 mph - N/A   Mostly Cloudy
9:35 AM 23.4 °F 12.8 °F 19.2 °F 84% 30.22 in 10.0 mi ESE 10.4 mph - N/A   Mostly Cloudy
9:55 AM 23.7 °F 14.0 °F 19.4 °F 84% 30.22 in 10.0 mi East 9.2 mph - N/A   Mostly Cloudy
10:14 AM 24.8 °F 16.1 °F 19.4 °F 80% 30.22 in 10.0 mi East 8.1 mph - N/A   Overcast
10:15 AM 23.7 °F 14.7 °F 19.2 °F 83% 30.22 in 10.0 mi East 8.1 mph - N/A   Overcast
10:35 AM 23.7 °F 14.7 °F 19.4 °F 84% 30.20 in 7.0 mi ESE 8.1 mph - N/A   Overcast
10:55 AM 23.9 °F 15.0 °F 19.8 °F 84% 30.19 in 5.0 mi East 8.1 mph - N/A   Overcast
11:15 AM 23.9 °F 16.8 °F 19.4 °F 83% 30.17 in 7.0 mi East 5.8 mph - N/A   Overcast
11:35 AM 24.1 °F 16.0 °F 19.9 °F 84% 30.15 in 4.0 mi East 6.9 mph - N/A   Overcast
11:55 AM 24.1 °F 14.4 °F 20.3 °F 85% 30.13 in 3.0 mi East 9.2 mph - N/A   Overcast
12:15 PM 24.6 °F 16.7 °F 20.7 °F 85% 30.12 in 4.0 mi East 6.9 mph - N/A   Overcast
12:35 PM 24.8 °F 16.9 °F 21.2 °F 86% 30.10 in 5.0 mi East 6.9 mph - N/A   Overcast
12:55 PM 24.8 °F 17.9 °F 21.9 °F 89% 30.09 in 2.0 mi ESE 5.8 mph - N/A   Overcast
1:15 PM 24.8 °F 16.1 °F 22.5 °F 91% 30.07 in 2.0 mi SE 8.1 mph - N/A   Overcast
1:35 PM 24.8 °F 15.3 °F 23.0 °F 93% 30.05 in 2.0 mi SE 9.2 mph - N/A   Overcast
1:55 PM 24.6 °F 15.8 °F 23.0 °F 94% 30.04 in 1.8 mi SE 8.1 mph - N/A   Overcast
2:15 PM 24.8 °F 16.1 °F 23.0 °F 93% 30.04 in 4.0 mi SE 8.1 mph - N/A   Overcast
2:35 PM 24.6 °F 16.7 °F 23.0 °F 94% 30.03 in 3.0 mi SE 6.9 mph - N/A   Overcast
2:55 PM 24.4 °F 16.5 °F 23.0 °F 94% 30.01 in 4.0 mi SE 6.9 mph - N/A   Overcast
3:15 PM 24.4 °F 16.5 °F 23.0 °F 94% 30.02 in 2.0 mi SSE 6.9 mph - N/A   Overcast
3:35 PM 24.4 °F 16.5 °F 23.4 °F 96% 30.01 in 1.8 mi SE 6.9 mph - N/A   Overcast
3:55 PM 24.4 °F 17.5 °F 23.4 °F 96% 30.01 in 2.5 mi SE 5.8 mph - N/A   Overcast
4:15 PM 24.4 °F 15.6 °F 23.5 °F 96% 30.03 in 3.0 mi South 8.1 mph - N/A   Overcast
4:35 PM 24.4 °F 15.6 °F 23.7 °F 97% 30.02 in 3.0 mi South 8.1 mph - N/A   Overcast
4:55 PM 24.6 °F 15.8 °F 23.9 °F 97% 30.02 in 3.0 mi South 8.1 mph - N/A   Overcast
5:15 PM 24.6 °F 15.1 °F 23.9 °F 97% 30.01 in 2.5 mi South 9.2 mph - N/A   Overcast
5:35 PM 24.8 °F 14.0 °F 24.4 °F 99% 30.01 in 2.0 mi South 11.5 mph - N/A   Overcast
5:55 PM 24.8 °F 14.6 °F 23.9 °F 96% 30.02 in 3.0 mi South 10.4 mph - N/A   Overcast
6:15 PM 24.6 °F 15.8 °F 23.7 °F 96% 30.02 in 4.0 mi SSW 8.1 mph - N/A   Overcast
6:35 PM 24.6 °F 15.1 °F 23.7 °F 96% 30.03 in 4.0 mi SSW 9.2 mph - N/A   Overcast
6:55 PM 24.6 °F 14.4 °F 23.5 °F 96% 30.03 in 5.0 mi SSW 10.4 mph - N/A   Overcast
7:15 PM 24.4 °F 14.2 °F 23.5 °F 96% 30.03 in 5.0 mi SSW 10.4 mph - N/A   Overcast
7:35 PM 24.4 °F 14.2 °F 23.5 °F 96% 30.03 in 5.0 mi South 10.4 mph - N/A   Overcast
7:55 PM 24.6 °F 15.1 °F 23.7 °F 96% 30.03 in 4.0 mi SSE 9.2 mph - N/A   Overcast
8:15 PM 24.6 °F 15.8 °F 23.7 °F 96% 30.04 in 5.0 mi South 8.1 mph - N/A   Overcast
8:35 PM 24.6 °F 15.1 °F 23.5 °F 96% 30.04 in 3.0 mi SE 9.2 mph - N/A Snow Light Snow
8:55 PM 24.6 °F 15.8 °F 23.5 °F 96% 30.04 in 4.0 mi SW 8.1 mph - N/A Snow Light Snow
9:15 PM 24.8 °F 14.6 °F 23.5 °F 95% 30.04 in 5.0 mi ESE 10.4 mph - N/A   Overcast
9:35 PM 24.8 °F 16.1 °F 23.5 °F 95% 30.04 in 5.0 mi SE 8.1 mph - N/A   Overcast
9:55 PM 24.8 °F 15.3 °F 24.8 °F 100% 30.04 in 5.0 mi SE 9.2 mph - N/A   Overcast
10:35 PM 25.2 °F 16.5 °F 23.7 °F 94% 30.06 in 7.0 mi SE 8.1 mph - N/A   Overcast
10:55 PM 25.3 °F 15.3 °F 23.5 °F 93% 30.06 in 7.0 mi SE 10.4 mph - N/A   Overcast
11:15 PM 25.3 °F 14.1 °F 23.4 °F 92% 30.06 in 7.0 mi SW 12.7 mph - N/A   Overcast
11:35 PM 25.5 °F 15.5 °F 23.2 °F 91% 30.06 in 10.0 mi East 10.4 mph 18.4 mph N/A   Overcast
11:55 PM 25.3 °F 14.7 °F 23.0 °F 91% 30.06 in 10.0 mi East 11.5 mph 18.4 mph N/A   Overcast